Sekiu, Washington
Current Conditions -  °F | °C
As of 4:28 AM on Sunday 25 Jan 2015 (Local Time) from KUIL Reporting Station
Haze Haze  
Wind Chill: 51°   Ceiling: 500
Heat Index: 51°   Visibility: 1.2mi
Dew Point: 51°   Wind: 5mph
Humidity: 100%   Direction: 190°S
Pressure: 30.18"   Gusts: NA
Location:  48.26°N, 124.3°W
Report Text: KUIL 251228Z AUTO 19004KT 1 1/4SM BR OVC005 11/11 A3018 RMK AO2 T01060106
Loading
Personal Weather Stations






























Interactive Weather Map New forecast layout! Learn more

10-Day Weather Forecast

Advertisements
Track Severe Weather on mobile